Accueil
METAR-TAF:

METAR-TAF

Aéroports :

Aéroport de Ioujno-Sakhalinsk

Ioujno-Sakhalinsk, Russie

latitude: 46-57N, longitude: 142-43E, altitude: 31 m

Observation

Le bulletin a été fait il y a 31 minutes, à 21:00 UTC
Vent calme
Température -13°C
Humidité 92%
Pression 1017 hPa
Visibilité 10 km ou plus
Nuages épars à une hauteur de 3700 ft

METAR: UHSS 182100Z 00000MPS 9999 SCT037 M13/M14 Q1017 R01/810260 NOSIG RMK QFE762/1016

Heure: 08:31 (21:31 UTC)

Prévision

Le bulletin a été fait il y a 1 heure et 31 minutes, à 20:00 UTC
Prévision valable du 18 à 21 UTC au 20 à 03 UTC
Vent 6 kt de nord
Visibilité 10 km ou plus
Nuages fragmentés à une hauteur de 3000 ft, Cumulonimbus.

TAF: UHSS 182000Z 1821/2003 36003MPS 9999 BKN030CB

Observations et prévisions météorologiques de plus de 4000 aéroports (messages METAR et TAF).

Les stations disponibles sont représentées par des disques jaunes et rouges sur la carte.

Passer la souris dessus pour voir le nom de la station.

Cliquer dessus pour voir les observations et prévisions météorologiques.

Pour changer de carte: cliquez sur les boutons verts avec une croix noire pour zoomer, sur le bouton vert avec un tiret pour effectuer un zoom arrière, ou sur les flèches vertes pour les cartes adjacentes.


METAR-TAF: